sensor_id;sensor_type;location;lat;lon;timestamp;temperature;humidity
45313;SHT31;68267;51.540;5.854;2023-12-29T00:07:58;11.3;75.4
45313;SHT31;68267;51.540;5.854;2023-12-29T00:21:18;11.2;76.3
45313;SHT31;68267;51.540;5.854;2023-12-29T00:34:37;11.2;76.3
45313;SHT31;68267;51.540;5.854;2023-12-29T00:47:57;11.1;76.5
45313;SHT31;68267;51.540;5.854;2023-12-29T01:01:17;11.2;76.5
45313;SHT31;68267;51.540;5.854;2023-12-29T01:14:36;10.8;78.5
45313;SHT31;68267;51.540;5.854;2023-12-29T01:27:56;10.0;85.0
45313;SHT31;68267;51.540;5.854;2023-12-29T01:41:18;9.5;88.7
45313;SHT31;68267;51.540;5.854;2023-12-29T01:54:38;9.3;90.1
45313;SHT31;68267;51.540;5.854;2023-12-29T02:07:58;9.1;91.1
45313;SHT31;68267;51.540;5.854;2023-12-29T02:21:17;9.2;90.7
45313;SHT31;68267;51.540;5.854;2023-12-29T02:34:37;9.3;90.2
45313;SHT31;68267;51.540;5.854;2023-12-29T02:47:59;9.6;88.2
45313;SHT31;68267;51.540;5.854;2023-12-29T03:01:19;9.7;87.5
45313;SHT31;68267;51.540;5.854;2023-12-29T03:14:38;10.0;85.5
45313;SHT31;68267;51.540;5.854;2023-12-29T03:27:58;10.2;83.6
45313;SHT31;68267;51.540;5.854;2023-12-29T03:41:18;10.3;82.5
45313;SHT31;68267;51.540;5.854;2023-12-29T03:54:37;10.5;80.7
45313;SHT31;68267;51.540;5.854;2023-12-29T04:07:57;10.6;79.0
45313;SHT31;68267;51.540;5.854;2023-12-29T04:21:17;10.7;79.4
45313;SHT31;68267;51.540;5.854;2023-12-29T04:34:36;10.8;78.2
45313;SHT31;68267;51.540;5.854;2023-12-29T04:47:56;10.8;77.9
45313;SHT31;68267;51.540;5.854;2023-12-29T05:01:16;10.8;77.2
45313;SHT31;68267;51.540;5.854;2023-12-29T05:14:38;10.8;76.8
45313;SHT31;68267;51.540;5.854;2023-12-29T05:27:57;10.7;77.1
45313;SHT31;68267;51.540;5.854;2023-12-29T05:41:17;10.6;77.6
45313;SHT31;68267;51.540;5.854;2023-12-29T05:54:37;10.6;78.3
45313;SHT31;68267;51.540;5.854;2023-12-29T06:07:56;10.6;78.2
45313;SHT31;68267;51.540;5.854;2023-12-29T06:21:18;10.7;78.5
45313;SHT31;68267;51.540;5.854;2023-12-29T06:47:58;10.7;79.2
45313;SHT31;68267;51.540;5.854;2023-12-29T07:01:17;10.6;79.9
45313;SHT31;68267;51.540;5.854;2023-12-29T07:14:37;10.4;81.8
45313;SHT31;68267;51.540;5.854;2023-12-29T07:27:59;10.3;83.2
45313;SHT31;68267;51.540;5.854;2023-12-29T07:41:19;10.1;84.2
45313;SHT31;68267;51.540;5.854;2023-12-29T07:54:38;10.1;84.9
45313;SHT31;68267;51.540;5.854;2023-12-29T08:07:58;10.1;85.7
45313;SHT31;68267;51.540;5.854;2023-12-29T08:21:18;10.0;86.5
45313;SHT31;68267;51.540;5.854;2023-12-29T08:34:37;10.1;86.2
45313;SHT31;68267;51.540;5.854;2023-12-29T08:47:57;10.2;85.7
45313;SHT31;68267;51.540;5.854;2023-12-29T09:01:17;10.3;85.3
45313;SHT31;68267;51.540;5.854;2023-12-29T09:14:36;10.1;85.9
45313;SHT31;68267;51.540;5.854;2023-12-29T09:27:56;10.1;86.4
45313;SHT31;68267;51.540;5.854;2023-12-29T09:41:18;10.0;86.9
45313;SHT31;68267;51.540;5.854;2023-12-29T09:54:38;10.2;87.2
45313;SHT31;68267;51.540;5.854;2023-12-29T10:08:00;10.3;87.3
45313;SHT31;68267;51.540;5.854;2023-12-29T10:21:20;10.5;85.3
45313;SHT31;68267;51.540;5.854;2023-12-29T10:34:39;10.6;83.9
45313;SHT31;68267;51.540;5.854;2023-12-29T10:47:59;10.7;83.6
45313;SHT31;68267;51.540;5.854;2023-12-29T11:01:18;10.7;82.9
45313;SHT31;68267;51.540;5.854;2023-12-29T11:14:38;10.8;83.1
45313;SHT31;68267;51.540;5.854;2023-12-29T11:27:58;11.0;82.4
45313;SHT31;68267;51.540;5.854;2023-12-29T11:41:17;11.0;82.2
45313;SHT31;68267;51.540;5.854;2023-12-29T11:54:37;10.5;84.9
45313;SHT31;68267;51.540;5.854;2023-12-29T12:07:57;9.9;89.1
45313;SHT31;68267;51.540;5.854;2023-12-29T12:21:16;9.7;91.0
45313;SHT31;68267;51.540;5.854;2023-12-29T12:34:36;8.7;88.9
45313;SHT31;68267;51.540;5.854;2023-12-29T12:47:56;8.7;92.0
45313;SHT31;68267;51.540;5.854;2023-12-29T13:01:15;9.1;92.7
45313;SHT31;68267;51.540;5.854;2023-12-29T13:14:35;9.2;92.5
45313;SHT31;68267;51.540;5.854;2023-12-29T13:27:55;9.1;92.6
45313;SHT31;68267;51.540;5.854;2023-12-29T13:41:14;9.1;92.9
45313;SHT31;68267;51.540;5.854;2023-12-29T13:54:34;9.5;92.9
45313;SHT31;68267;51.540;5.854;2023-12-29T14:07:54;10.2;89.6
45313;SHT31;68267;51.540;5.854;2023-12-29T14:21:13;10.6;87.0
45313;SHT31;68267;51.540;5.854;2023-12-29T14:34:33;10.7;85.6
45313;SHT31;68267;51.540;5.854;2023-12-29T14:47:53;10.7;85.3
45313;SHT31;68267;51.540;5.854;2023-12-29T15:01:12;10.8;85.3
45313;SHT31;68267;51.540;5.854;2023-12-29T15:14:32;10.7;85.6
45313;SHT31;68267;51.540;5.854;2023-12-29T15:27:52;10.4;88.1
45313;SHT31;68267;51.540;5.854;2023-12-29T15:41:11;10.3;87.8
45313;SHT31;68267;51.540;5.854;2023-12-29T15:54:31;10.4;86.8
45313;SHT31;68267;51.540;5.854;2023-12-29T16:07:50;10.6;86.4
45313;SHT31;68267;51.540;5.854;2023-12-29T16:21:10;10.5;86.7
45313;SHT31;68267;51.540;5.854;2023-12-29T16:34:30;10.4;86.9
45313;SHT31;68267;51.540;5.854;2023-12-29T16:47:52;10.5;86.6
45313;SHT31;68267;51.540;5.854;2023-12-29T17:01:11;10.5;86.7
45313;SHT31;68267;51.540;5.854;2023-12-29T17:14:31;10.6;85.0
45313;SHT31;68267;51.540;5.854;2023-12-29T17:27:51;10.7;84.1
45313;SHT31;68267;51.540;5.854;2023-12-29T17:41:11;10.6;85.7
45313;SHT31;68267;51.540;5.854;2023-12-29T17:54:33;10.5;86.4
45313;SHT31;68267;51.540;5.854;2023-12-29T18:07:52;10.3;87.7
45313;SHT31;68267;51.540;5.854;2023-12-29T18:21:12;10.4;85.2
45313;SHT31;68267;51.540;5.854;2023-12-29T18:34:32;9.6;85.2
45313;SHT31;68267;51.540;5.854;2023-12-29T18:47:51;8.5;87.0
45313;SHT31;68267;51.540;5.854;2023-12-29T19:01:07;8.2;85.3
45313;SHT31;68267;51.540;5.854;2023-12-29T19:14:19;8.2;87.0
45313;SHT31;68267;51.540;5.854;2023-12-29T19:27:39;8.5;88.6
45313;SHT31;68267;51.540;5.854;2023-12-29T19:40:59;8.8;88.2
45313;SHT31;68267;51.540;5.854;2023-12-29T19:54:21;8.9;88.2
45313;SHT31;68267;51.540;5.854;2023-12-29T20:07:40;9.0;87.9
45313;SHT31;68267;51.540;5.854;2023-12-29T20:21:00;9.3;86.8
45313;SHT31;68267;51.540;5.854;2023-12-29T20:34:20;9.6;85.3
45313;SHT31;68267;51.540;5.854;2023-12-29T20:47:39;9.8;83.8
45313;SHT31;68267;51.540;5.854;2023-12-29T21:00:59;9.7;83.4
45313;SHT31;68267;51.540;5.854;2023-12-29T21:14:19;9.7;82.9
45313;SHT31;68267;51.540;5.854;2023-12-29T21:27:38;9.6;82.5
45313;SHT31;68267;51.540;5.854;2023-12-29T21:40:58;9.5;82.2
45313;SHT31;68267;51.540;5.854;2023-12-29T21:54:18;9.4;82.3
45313;SHT31;68267;51.540;5.854;2023-12-29T22:07:40;9.3;82.6
45313;SHT31;68267;51.540;5.854;2023-12-29T22:20:59;9.2;82.8
45313;SHT31;68267;51.540;5.854;2023-12-29T22:34:19;9.2;82.9
45313;SHT31;68267;51.540;5.854;2023-12-29T22:47:39;9.2;83.4
45313;SHT31;68267;51.540;5.854;2023-12-29T23:00:58;9.2;83.5
45313;SHT31;68267;51.540;5.854;2023-12-29T23:14:21;9.2;83.2
45313;SHT31;68267;51.540;5.854;2023-12-29T23:27:40;9.2;82.3
45313;SHT31;68267;51.540;5.854;2023-12-29T23:41:00;9.1;81.8
45313;SHT31;68267;51.540;5.854;2023-12-29T23:54:20;9.1;80.9
